DAL1161 KSLC-KLAX
Flight info
| Callsign | DAL1161 |
|---|---|
| Flight time | 1h 28m |
| Altitude | 36000 |
| Route | ARCHZ1 WINEN LAKRR HAKMN ANJLL4 |
| Aircraft | A20N/M-SDE2E3FGHIRWXY/LB1 |
Departure
| Time | 2026-04-20 02:48 |
|---|---|
| Airport | Salt Lake City International Airport (KSLC) |
Arrival
| Time | 2026-04-20 04:16 |
|---|---|
| Airport | Los Angeles International Airport (KLAX) |
| Time | Latitude | Longitude | Altitude | Speed | Heading |
|---|---|---|---|---|---|
| 2026-04-20 02:09 | 40.78594 | -111.98886 | 4234 ft | 0 kts | 175° |
| 2026-04-20 02:35 | 40.78610 | -111.98888 | 4233 ft | 2 kts | 177° |
| 2026-04-20 02:35 | 40.78627 | -111.98890 | 4233 ft | 2 kts | 176° |
| 2026-04-20 02:35 | 40.78643 | -111.98891 | 4233 ft | 2 kts | 179° |
| 2026-04-20 02:36 | 40.78660 | -111.98890 | 4234 ft | 2 kts | 186° |
| 2026-04-20 02:36 | 40.78671 | -111.98888 | 4233 ft | 2 kts | 203° |
| 2026-04-20 02:36 | 40.78680 | -111.98875 | 4231 ft | 1 kts | 265° |
| 2026-04-20 02:36 | 40.78680 | -111.98873 | 4231 ft | 0 kts | 265° |
| 2026-04-20 02:39 | 40.78680 | -111.98874 | 4234 ft | 1 kts | 265° |
| 2026-04-20 02:39 | 40.78678 | -111.98901 | 4234 ft | 5 kts | 265° |
| 2026-04-20 02:40 | 40.78673 | -111.98970 | 4234 ft | 9 kts | 265° |
| 2026-04-20 02:40 | 40.78667 | -111.99063 | 4234 ft | 11 kts | 265° |
| 2026-04-20 02:40 | 40.78661 | -111.99149 | 4234 ft | 0 kts | 265° |
| 2026-04-20 02:41 | 40.78661 | -111.99154 | 4234 ft | 2 kts | 265° |
| 2026-04-20 02:41 | 40.78658 | -111.99202 | 4234 ft | 8 kts | 265° |
| 2026-04-20 02:42 | 40.78652 | -111.99282 | 4234 ft | 10 kts | 265° |
| 2026-04-20 02:42 | 40.78646 | -111.99378 | 4234 ft | 11 kts | 265° |
| 2026-04-20 02:42 | 40.78620 | -111.99455 | 4233 ft | 9 kts | 206° |
| 2026-04-20 02:42 | 40.78557 | -111.99454 | 4235 ft | 10 kts | 175° |
| 2026-04-20 02:43 | 40.78484 | -111.99445 | 4235 ft | 11 kts | 175° |
| 2026-04-20 02:43 | 40.78401 | -111.99436 | 4235 ft | 13 kts | 174° |
| 2026-04-20 02:43 | 40.78307 | -111.99425 | 4233 ft | 14 kts | 174° |
| 2026-04-20 02:43 | 40.78206 | -111.99413 | 4236 ft | 15 kts | 175° |
| 2026-04-20 02:44 | 40.78102 | -111.99410 | 4236 ft | 15 kts | 186° |
| 2026-04-20 02:44 | 40.77997 | -111.99440 | 4237 ft | 16 kts | 188° |
| 2026-04-20 02:44 | 40.77896 | -111.99432 | 4238 ft | 11 kts | 175° |
| 2026-04-20 02:44 | 40.77815 | -111.99422 | 4238 ft | 13 kts | 175° |
| 2026-04-20 02:45 | 40.77724 | -111.99412 | 4238 ft | 14 kts | 175° |
| 2026-04-20 02:45 | 40.77623 | -111.99400 | 4238 ft | 15 kts | 175° |
| 2026-04-20 02:45 | 40.77547 | -111.99400 | 4237 ft | 7 kts | 202° |
| 2026-04-20 02:45 | 40.77536 | -111.99412 | 4238 ft | 0 kts | 225° |
| 2026-04-20 02:46 | 40.77535 | -111.99412 | 4238 ft | 1 kts | 225° |
| 2026-04-20 02:46 | 40.77529 | -111.99422 | 4236 ft | 2 kts | 234° |
| 2026-04-20 02:46 | 40.77522 | -111.99447 | 4238 ft | 4 kts | 254° |
| 2026-04-20 02:46 | 40.77519 | -111.99503 | 4238 ft | 9 kts | 267° |
| 2026-04-20 02:47 | 40.77558 | -111.99556 | 4238 ft | 10 kts | 353° |
| 2026-04-20 02:47 | 40.77675 | -111.99569 | 4238 ft | 37 kts | 355° |
| 2026-04-20 02:47 | 40.78174 | -111.99628 | 4237 ft | 104 kts | 355° |
| 2026-04-20 02:47 | 40.79079 | -111.99733 | 4234 ft | 155 kts | 355° |
| 2026-04-20 02:48 | 40.80257 | -111.99855 | 4538 ft | 172 kts | 354° |
| 2026-04-20 02:48 | 40.81436 | -112.00052 | 5245 ft | 169 kts | 337° |
| 2026-04-20 02:48 | 40.82327 | -112.01003 | 5779 ft | 170 kts | 295° |
| 2026-04-20 02:48 | 40.82610 | -112.02509 | 5977 ft | 173 kts | 273° |
| 2026-04-20 02:49 | 40.82702 | -112.04159 | 6160 ft | 191 kts | 271° |
| 2026-04-20 02:49 | 40.82796 | -112.05999 | 6540 ft | 210 kts | 272° |
| 2026-04-20 02:49 | 40.82769 | -112.08016 | 6813 ft | 231 kts | 252° |
| 2026-04-20 02:49 | 40.82130 | -112.10055 | 7134 ft | 251 kts | 241° |
| 2026-04-20 02:50 | 40.81294 | -112.12146 | 7509 ft | 271 kts | 239° |
| 2026-04-20 02:50 | 40.80364 | -112.14412 | 8138 ft | 279 kts | 239° |
| 2026-04-20 02:50 | 40.79457 | -112.16678 | 9045 ft | 279 kts | 240° |
| 2026-04-20 02:50 | 40.78568 | -112.18951 | 9929 ft | 280 kts | 240° |
| 2026-04-20 02:51 | 40.77671 | -112.21280 | 10497 ft | 293 kts | 241° |
| 2026-04-20 02:51 | 40.76709 | -112.23769 | 10755 ft | 315 kts | 239° |
| 2026-04-20 02:51 | 40.75304 | -112.26063 | 11119 ft | 328 kts | 219° |
| 2026-04-20 02:51 | 40.73351 | -112.27554 | 11878 ft | 331 kts | 200° |
| 2026-04-20 02:52 | 40.71087 | -112.28198 | 12665 ft | 335 kts | 190° |
| 2026-04-20 02:52 | 40.68760 | -112.28673 | 13442 ft | 339 kts | 190° |
| 2026-04-20 02:52 | 40.66421 | -112.29138 | 14177 ft | 342 kts | 190° |
| 2026-04-20 02:52 | 40.64060 | -112.29610 | 14859 ft | 345 kts | 190° |
| 2026-04-20 02:53 | 40.61679 | -112.30090 | 15530 ft | 348 kts | 190° |
| 2026-04-20 02:53 | 40.59271 | -112.30577 | 16201 ft | 351 kts | 190° |
| 2026-04-20 02:53 | 40.56877 | -112.31088 | 16854 ft | 354 kts | 193° |
| 2026-04-20 02:53 | 40.54491 | -112.31927 | 17473 ft | 357 kts | 198° |
| 2026-04-20 02:54 | 40.52114 | -112.32917 | 18126 ft | 360 kts | 198° |
| 2026-04-20 02:54 | 40.49699 | -112.33917 | 18695 ft | 364 kts | 198° |
| 2026-04-20 02:54 | 40.47268 | -112.34917 | 19238 ft | 367 kts | 198° |
| 2026-04-20 02:54 | 40.44810 | -112.35925 | 19773 ft | 371 kts | 198° |
| 2026-04-20 02:55 | 40.42361 | -112.36927 | 20310 ft | 374 kts | 198° |
| 2026-04-20 02:55 | 40.39868 | -112.37946 | 20835 ft | 378 kts | 198° |
| 2026-04-20 02:55 | 40.37345 | -112.38976 | 21370 ft | 381 kts | 198° |
| 2026-04-20 02:55 | 40.34799 | -112.40014 | 21896 ft | 384 kts | 198° |
| 2026-04-20 02:56 | 40.32237 | -112.41058 | 22426 ft | 387 kts | 198° |
| 2026-04-20 02:56 | 40.29653 | -112.42111 | 22917 ft | 391 kts | 198° |
| 2026-04-20 02:56 | 40.27041 | -112.43174 | 23423 ft | 394 kts | 197° |
| 2026-04-20 02:56 | 40.24404 | -112.44246 | 23869 ft | 397 kts | 198° |
| 2026-04-20 02:57 | 40.21756 | -112.45321 | 24314 ft | 399 kts | 198° |
| 2026-04-20 02:57 | 40.19105 | -112.46445 | 24742 ft | 402 kts | 201° |
| 2026-04-20 02:57 | 40.16570 | -112.47906 | 25151 ft | 404 kts | 207° |
| 2026-04-20 02:57 | 40.14084 | -112.49667 | 25578 ft | 406 kts | 208° |
| 2026-04-20 02:58 | 40.11588 | -112.51438 | 25993 ft | 408 kts | 208° |
| 2026-04-20 02:58 | 40.09084 | -112.53207 | 26405 ft | 410 kts | 208° |
| 2026-04-20 02:58 | 40.06557 | -112.54986 | 26798 ft | 413 kts | 208° |
| 2026-04-20 02:58 | 40.04039 | -112.56756 | 27163 ft | 415 kts | 208° |
| 2026-04-20 02:59 | 40.01480 | -112.58552 | 27541 ft | 418 kts | 208° |
| 2026-04-20 02:59 | 39.98907 | -112.60357 | 27913 ft | 420 kts | 208° |
| 2026-04-20 02:59 | 39.96330 | -112.62163 | 28276 ft | 422 kts | 208° |
| 2026-04-20 02:59 | 39.93771 | -112.63955 | 28615 ft | 424 kts | 209° |
| 2026-04-20 03:00 | 39.91159 | -112.65783 | 28964 ft | 426 kts | 209° |
| 2026-04-20 03:00 | 39.88542 | -112.67612 | 29292 ft | 428 kts | 209° |
| 2026-04-20 03:00 | 39.85910 | -112.69450 | 29626 ft | 429 kts | 209° |
| 2026-04-20 03:00 | 39.83269 | -112.71293 | 29960 ft | 431 kts | 209° |
| 2026-04-20 03:01 | 39.80618 | -112.73142 | 30270 ft | 432 kts | 208° |
| 2026-04-20 03:01 | 39.77964 | -112.74991 | 30571 ft | 433 kts | 208° |
| 2026-04-20 03:01 | 39.75331 | -112.76823 | 30862 ft | 435 kts | 208° |
| 2026-04-20 03:01 | 39.72657 | -112.78683 | 31184 ft | 435 kts | 208° |
| 2026-04-20 03:02 | 39.69977 | -112.80539 | 31547 ft | 434 kts | 207° |
| 2026-04-20 03:02 | 39.67227 | -112.82151 | 31941 ft | 433 kts | 201° |
| 2026-04-20 03:02 | 39.64372 | -112.83395 | 32335 ft | 432 kts | 198° |
| 2026-04-20 03:02 | 39.61502 | -112.84523 | 32719 ft | 430 kts | 198° |
| 2026-04-20 03:03 | 39.58634 | -112.85658 | 33090 ft | 429 kts | 198° |
| 2026-04-20 03:03 | 39.55827 | -112.86775 | 33454 ft | 427 kts | 198° |
| 2026-04-20 03:03 | 39.52989 | -112.87905 | 33824 ft | 425 kts | 198° |
| 2026-04-20 03:03 | 39.50161 | -112.89031 | 34123 ft | 424 kts | 198° |
| 2026-04-20 03:04 | 39.47343 | -112.90152 | 34386 ft | 423 kts | 198° |
| 2026-04-20 03:04 | 39.44521 | -112.91273 | 34625 ft | 423 kts | 198° |
| 2026-04-20 03:04 | 39.41706 | -112.92391 | 34856 ft | 423 kts | 198° |
| 2026-04-20 03:04 | 39.38891 | -112.93508 | 35091 ft | 422 kts | 198° |
| 2026-04-20 03:05 | 39.36079 | -112.94622 | 35299 ft | 422 kts | 198° |
| 2026-04-20 03:05 | 39.33296 | -112.95724 | 35511 ft | 422 kts | 198° |
| 2026-04-20 03:05 | 39.30489 | -112.96834 | 35722 ft | 421 kts | 198° |
| 2026-04-20 03:05 | 39.27685 | -112.97943 | 35919 ft | 421 kts | 198° |
| 2026-04-20 03:06 | 39.24878 | -112.99052 | 35950 ft | 421 kts | 198° |
| 2026-04-20 03:06 | 39.19276 | -113.01262 | 35953 ft | 420 kts | 198° |
| 2026-04-20 03:07 | 39.13718 | -113.03451 | 35951 ft | 420 kts | 198° |
| 2026-04-20 03:07 | 39.08117 | -113.05653 | 35952 ft | 420 kts | 198° |
| 2026-04-20 03:08 | 39.02523 | -113.07849 | 35959 ft | 420 kts | 198° |
| 2026-04-20 03:08 | 38.96955 | -113.10031 | 35958 ft | 420 kts | 198° |
| 2026-04-20 03:09 | 38.91370 | -113.12216 | 35953 ft | 419 kts | 198° |
| 2026-04-20 03:09 | 38.85783 | -113.14398 | 35954 ft | 419 kts | 198° |
| 2026-04-20 03:10 | 38.80231 | -113.16563 | 35959 ft | 419 kts | 198° |
| 2026-04-20 03:10 | 38.74629 | -113.18744 | 35966 ft | 419 kts | 198° |
| 2026-04-20 03:11 | 38.69060 | -113.20909 | 35980 ft | 420 kts | 198° |
| 2026-04-20 03:11 | 38.63466 | -113.23079 | 35993 ft | 420 kts | 198° |
| 2026-04-20 03:12 | 38.57845 | -113.25256 | 36012 ft | 421 kts | 198° |
| 2026-04-20 03:12 | 38.52262 | -113.27416 | 36019 ft | 421 kts | 199° |
| 2026-04-20 03:13 | 38.46637 | -113.29588 | 36020 ft | 422 kts | 198° |
| 2026-04-20 03:13 | 38.41002 | -113.31760 | 36023 ft | 423 kts | 198° |
| 2026-04-20 03:14 | 38.35347 | -113.33937 | 36015 ft | 423 kts | 198° |
| 2026-04-20 03:14 | 38.29722 | -113.36098 | 36002 ft | 422 kts | 198° |
| 2026-04-20 03:15 | 38.24127 | -113.38245 | 35986 ft | 422 kts | 198° |
| 2026-04-20 03:15 | 38.18483 | -113.40407 | 35982 ft | 422 kts | 198° |
| 2026-04-20 03:16 | 38.12884 | -113.42548 | 35983 ft | 422 kts | 198° |
| 2026-04-20 03:16 | 38.07262 | -113.44694 | 35982 ft | 421 kts | 198° |
| 2026-04-20 03:17 | 38.01647 | -113.46834 | 35977 ft | 420 kts | 198° |
| 2026-04-20 03:17 | 37.96034 | -113.48971 | 35971 ft | 420 kts | 198° |
| 2026-04-20 03:18 | 37.90481 | -113.51149 | 35970 ft | 420 kts | 200° |
| 2026-04-20 03:18 | 37.84962 | -113.53598 | 35966 ft | 419 kts | 201° |
| 2026-04-20 03:19 | 37.79442 | -113.56041 | 35962 ft | 420 kts | 201° |
| 2026-04-20 03:19 | 37.73939 | -113.58439 | 35962 ft | 420 kts | 200° |
| 2026-04-20 03:20 | 37.68400 | -113.60841 | 35967 ft | 420 kts | 200° |
| 2026-04-20 03:20 | 37.62864 | -113.63238 | 35963 ft | 421 kts | 200° |
| 2026-04-20 03:21 | 37.57354 | -113.65620 | 35966 ft | 421 kts | 200° |
| 2026-04-20 03:21 | 37.51799 | -113.68017 | 35969 ft | 422 kts | 200° |
| 2026-04-20 03:22 | 37.47185 | -113.70006 | 35961 ft | 422 kts | 200° |
| 2026-04-20 03:22 | 37.41619 | -113.72402 | 35961 ft | 423 kts | 200° |
| 2026-04-20 03:23 | 37.36040 | -113.74799 | 35962 ft | 423 kts | 200° |
| 2026-04-20 03:23 | 37.30460 | -113.77193 | 35951 ft | 423 kts | 200° |
| 2026-04-20 03:24 | 37.24892 | -113.79578 | 35942 ft | 421 kts | 200° |
| 2026-04-20 03:24 | 37.19361 | -113.81944 | 35945 ft | 422 kts | 200° |
| 2026-04-20 03:25 | 37.13805 | -113.84317 | 35944 ft | 421 kts | 200° |
| 2026-04-20 03:25 | 37.08252 | -113.86684 | 35936 ft | 421 kts | 200° |
| 2026-04-20 03:26 | 37.02704 | -113.89046 | 35931 ft | 421 kts | 200° |
| 2026-04-20 03:26 | 36.97190 | -113.91390 | 35923 ft | 421 kts | 200° |
| 2026-04-20 03:27 | 36.91647 | -113.93743 | 35909 ft | 420 kts | 200° |
| 2026-04-20 03:27 | 36.86109 | -113.96090 | 35907 ft | 420 kts | 200° |
| 2026-04-20 03:28 | 36.80578 | -113.98430 | 35897 ft | 419 kts | 200° |
| 2026-04-20 03:28 | 36.72321 | -114.01917 | 35881 ft | 418 kts | 200° |
| 2026-04-20 03:29 | 36.66785 | -114.04250 | 35874 ft | 418 kts | 200° |
| 2026-04-20 03:29 | 36.61305 | -114.06557 | 35867 ft | 418 kts | 200° |
| 2026-04-20 03:30 | 36.55782 | -114.08878 | 35857 ft | 419 kts | 200° |
| 2026-04-20 03:30 | 36.50250 | -114.11199 | 35856 ft | 419 kts | 200° |
| 2026-04-20 03:31 | 36.44750 | -114.13503 | 35850 ft | 419 kts | 200° |
| 2026-04-20 03:31 | 36.39206 | -114.15822 | 35844 ft | 419 kts | 200° |
| 2026-04-20 03:32 | 36.33672 | -114.18134 | 35833 ft | 420 kts | 200° |
| 2026-04-20 03:32 | 36.28130 | -114.20446 | 35831 ft | 420 kts | 200° |
| 2026-04-20 03:33 | 36.22571 | -114.22761 | 35829 ft | 421 kts | 200° |
| 2026-04-20 03:33 | 36.17040 | -114.25061 | 35831 ft | 422 kts | 200° |
| 2026-04-20 03:34 | 36.11536 | -114.27573 | 35826 ft | 421 kts | 207° |
| 2026-04-20 03:34 | 36.06647 | -114.31544 | 35822 ft | 421 kts | 221° |
| 2026-04-20 03:35 | 36.02643 | -114.36765 | 35821 ft | 422 kts | 228° |
| 2026-04-20 03:35 | 35.98740 | -114.42198 | 35819 ft | 422 kts | 227° |
| 2026-04-20 03:36 | 35.94825 | -114.47614 | 35842 ft | 423 kts | 227° |
| 2026-04-20 03:36 | 35.90901 | -114.53035 | 35860 ft | 424 kts | 227° |
| 2026-04-20 03:37 | 35.86961 | -114.58471 | 35870 ft | 424 kts | 227° |
| 2026-04-20 03:37 | 35.83049 | -114.63858 | 35890 ft | 425 kts | 227° |
| 2026-04-20 03:38 | 35.79115 | -114.69268 | 35890 ft | 423 kts | 227° |
| 2026-04-20 03:38 | 35.75182 | -114.74668 | 35902 ft | 423 kts | 227° |
| 2026-04-20 03:39 | 35.71244 | -114.80066 | 35906 ft | 423 kts | 227° |
| 2026-04-20 03:39 | 35.67297 | -114.85466 | 35913 ft | 424 kts | 227° |
| 2026-04-20 03:40 | 35.63377 | -114.90822 | 35914 ft | 423 kts | 227° |
| 2026-04-20 03:40 | 35.59430 | -114.96206 | 35914 ft | 422 kts | 227° |
| 2026-04-20 03:41 | 35.55517 | -115.01537 | 35912 ft | 421 kts | 227° |
| 2026-04-20 03:41 | 35.51577 | -115.06894 | 35912 ft | 421 kts | 227° |
| 2026-04-20 03:42 | 35.47604 | -115.12187 | 35937 ft | 423 kts | 226° |
| 2026-04-20 03:42 | 35.43534 | -115.17469 | 35945 ft | 426 kts | 227° |
| 2026-04-20 03:43 | 35.39465 | -115.22762 | 35952 ft | 426 kts | 227° |
| 2026-04-20 03:43 | 35.35412 | -115.28039 | 35956 ft | 427 kts | 227° |
| 2026-04-20 03:44 | 35.31330 | -115.33348 | 35958 ft | 428 kts | 227° |
| 2026-04-20 03:44 | 35.27230 | -115.38671 | 35957 ft | 429 kts | 227° |
| 2026-04-20 03:45 | 35.23153 | -115.43957 | 35958 ft | 429 kts | 227° |
| 2026-04-20 03:45 | 35.19033 | -115.49291 | 35956 ft | 430 kts | 227° |
| 2026-04-20 03:46 | 35.14936 | -115.54587 | 35958 ft | 431 kts | 227° |
| 2026-04-20 03:46 | 35.10798 | -115.59922 | 35955 ft | 431 kts | 227° |
| 2026-04-20 03:47 | 35.06652 | -115.65224 | 35946 ft | 431 kts | 227° |
| 2026-04-20 03:47 | 35.02523 | -115.70494 | 35921 ft | 431 kts | 227° |
| 2026-04-20 03:48 | 34.98385 | -115.75772 | 35916 ft | 430 kts | 227° |
| 2026-04-20 03:48 | 34.94240 | -115.81051 | 35902 ft | 430 kts | 227° |
| 2026-04-20 03:49 | 34.90113 | -115.86299 | 35894 ft | 431 kts | 227° |
| 2026-04-20 03:49 | 34.85965 | -115.91566 | 35888 ft | 431 kts | 227° |
| 2026-04-20 03:50 | 34.81802 | -115.96844 | 35884 ft | 431 kts | 227° |
| 2026-04-20 03:50 | 34.77659 | -116.02087 | 35884 ft | 432 kts | 227° |
| 2026-04-20 03:51 | 34.73491 | -116.07388 | 35888 ft | 432 kts | 228° |
| 2026-04-20 03:51 | 34.69358 | -116.12660 | 35889 ft | 433 kts | 228° |
| 2026-04-20 03:52 | 34.65189 | -116.17964 | 35895 ft | 433 kts | 228° |
| 2026-04-20 03:52 | 34.61022 | -116.23253 | 35903 ft | 433 kts | 228° |
| 2026-04-20 03:53 | 34.58937 | -116.25897 | 35757 ft | 433 kts | 228° |
| 2026-04-20 03:53 | 34.56877 | -116.28506 | 35497 ft | 433 kts | 228° |
| 2026-04-20 03:53 | 34.54784 | -116.31156 | 34871 ft | 437 kts | 228° |
| 2026-04-20 03:53 | 34.52656 | -116.33849 | 34012 ft | 444 kts | 228° |
| 2026-04-20 03:54 | 34.50516 | -116.36554 | 33237 ft | 445 kts | 228° |
| 2026-04-20 03:54 | 34.48375 | -116.39259 | 32461 ft | 445 kts | 228° |
| 2026-04-20 03:54 | 34.46223 | -116.41975 | 31674 ft | 446 kts | 227° |
| 2026-04-20 03:54 | 34.44100 | -116.44664 | 31024 ft | 444 kts | 229° |
| 2026-04-20 03:55 | 34.42161 | -116.47516 | 30502 ft | 434 kts | 235° |
| 2026-04-20 03:55 | 34.40524 | -116.50571 | 29945 ft | 430 kts | 242° |
| 2026-04-20 03:55 | 34.39162 | -116.53780 | 29317 ft | 426 kts | 245° |
| 2026-04-20 03:55 | 34.37857 | -116.56985 | 28739 ft | 421 kts | 245° |
| 2026-04-20 03:56 | 34.36560 | -116.60146 | 28170 ft | 417 kts | 244° |
| 2026-04-20 03:56 | 34.35286 | -116.63237 | 27496 ft | 411 kts | 244° |
| 2026-04-20 03:56 | 34.34008 | -116.66333 | 26817 ft | 408 kts | 244° |
| 2026-04-20 03:56 | 34.32752 | -116.69383 | 26520 ft | 403 kts | 245° |
| 2026-04-20 03:57 | 34.31517 | -116.72445 | 26128 ft | 406 kts | 245° |
| 2026-04-20 03:57 | 34.30288 | -116.75521 | 25614 ft | 406 kts | 245° |
| 2026-04-20 03:57 | 34.29062 | -116.78586 | 25097 ft | 403 kts | 245° |
| 2026-04-20 03:57 | 34.27859 | -116.81622 | 24589 ft | 399 kts | 245° |
| 2026-04-20 03:58 | 34.26680 | -116.84614 | 24120 ft | 395 kts | 244° |
| 2026-04-20 03:58 | 34.25490 | -116.87563 | 23548 ft | 386 kts | 244° |
| 2026-04-20 03:58 | 34.24308 | -116.90465 | 22721 ft | 382 kts | 244° |
| 2026-04-20 03:58 | 34.23139 | -116.93332 | 22172 ft | 379 kts | 243° |
| 2026-04-20 03:59 | 34.21972 | -116.96199 | 21683 ft | 379 kts | 243° |
| 2026-04-20 03:59 | 34.20904 | -116.99102 | 21184 ft | 377 kts | 249° |
| 2026-04-20 03:59 | 34.20087 | -117.02103 | 20681 ft | 374 kts | 251° |
| 2026-04-20 03:59 | 34.19291 | -117.05081 | 20188 ft | 371 kts | 250° |
| 2026-04-20 04:00 | 34.18504 | -117.08002 | 19702 ft | 369 kts | 250° |
| 2026-04-20 04:00 | 34.17708 | -117.10945 | 19211 ft | 367 kts | 250° |
| 2026-04-20 04:00 | 34.16915 | -117.13869 | 18764 ft | 365 kts | 249° |
| 2026-04-20 04:00 | 34.16127 | -117.16771 | 18305 ft | 362 kts | 249° |
| 2026-04-20 04:01 | 34.15338 | -117.19647 | 17789 ft | 359 kts | 249° |
| 2026-04-20 04:01 | 34.14559 | -117.22473 | 17269 ft | 357 kts | 249° |
| 2026-04-20 04:01 | 34.13777 | -117.25305 | 16799 ft | 354 kts | 249° |
| 2026-04-20 04:01 | 34.12998 | -117.28126 | 16321 ft | 354 kts | 249° |
| 2026-04-20 04:02 | 34.12221 | -117.30940 | 15840 ft | 352 kts | 249° |
| 2026-04-20 04:02 | 34.11448 | -117.33739 | 15363 ft | 350 kts | 249° |
| 2026-04-20 04:02 | 34.10679 | -117.36522 | 14887 ft | 348 kts | 249° |
| 2026-04-20 04:02 | 34.09934 | -117.39291 | 14492 ft | 344 kts | 250° |
| 2026-04-20 04:03 | 34.09256 | -117.42009 | 14190 ft | 333 kts | 251° |
| 2026-04-20 04:03 | 34.08601 | -117.44683 | 13734 ft | 332 kts | 251° |
| 2026-04-20 04:03 | 34.07944 | -117.47347 | 13281 ft | 329 kts | 251° |
| 2026-04-20 04:03 | 34.07295 | -117.49958 | 12847 ft | 327 kts | 251° |
| 2026-04-20 04:04 | 34.06639 | -117.52560 | 12242 ft | 324 kts | 250° |
| 2026-04-20 04:04 | 34.05971 | -117.55171 | 11699 ft | 326 kts | 250° |
| 2026-04-20 04:04 | 34.05306 | -117.57764 | 11262 ft | 319 kts | 250° |
| 2026-04-20 04:04 | 34.04650 | -117.60318 | 10820 ft | 318 kts | 250° |
| 2026-04-20 04:05 | 34.03999 | -117.62856 | 10388 ft | 316 kts | 250° |
| 2026-04-20 04:05 | 34.03352 | -117.65374 | 10101 ft | 310 kts | 250° |
| 2026-04-20 04:05 | 34.02719 | -117.67841 | 10025 ft | 312 kts | 250° |
| 2026-04-20 04:05 | 34.02158 | -117.70377 | 10006 ft | 313 kts | 257° |
| 2026-04-20 04:06 | 34.01893 | -117.72939 | 9892 ft | 301 kts | 261° |
| 2026-04-20 04:06 | 34.01664 | -117.75415 | 9476 ft | 295 kts | 261° |
| 2026-04-20 04:06 | 34.01432 | -117.77844 | 9129 ft | 288 kts | 261° |
| 2026-04-20 04:06 | 34.01198 | -117.80254 | 8869 ft | 290 kts | 261° |
| 2026-04-20 04:07 | 34.00965 | -117.82637 | 8564 ft | 281 kts | 261° |
| 2026-04-20 04:07 | 34.00740 | -117.84943 | 8181 ft | 273 kts | 261° |
| 2026-04-20 04:07 | 34.00524 | -117.87161 | 7774 ft | 266 kts | 261° |
| 2026-04-20 04:07 | 34.00308 | -117.89356 | 7396 ft | 262 kts | 261° |
| 2026-04-20 04:08 | 34.00092 | -117.91543 | 7012 ft | 263 kts | 261° |
| 2026-04-20 04:08 | 33.99973 | -117.93003 | 6760 ft | 264 kts | 262° |
| 2026-04-20 04:08 | 33.99794 | -117.95195 | 6427 ft | 262 kts | 261° |
| 2026-04-20 04:08 | 33.99574 | -117.97387 | 5974 ft | 262 kts | 261° |
| 2026-04-20 04:09 | 33.99352 | -117.99560 | 5476 ft | 260 kts | 261° |
| 2026-04-20 04:09 | 33.99134 | -118.01713 | 5048 ft | 256 kts | 261° |
| 2026-04-20 04:09 | 33.98923 | -118.03779 | 4814 ft | 245 kts | 261° |
| 2026-04-20 04:09 | 33.98718 | -118.05791 | 4638 ft | 240 kts | 261° |
| 2026-04-20 04:10 | 33.98515 | -118.07771 | 4466 ft | 237 kts | 261° |
| 2026-04-20 04:10 | 33.98313 | -118.09749 | 4289 ft | 237 kts | 261° |
| 2026-04-20 04:10 | 33.98114 | -118.11702 | 4114 ft | 232 kts | 261° |
| 2026-04-20 04:10 | 33.97924 | -118.13579 | 3962 ft | 217 kts | 261° |
| 2026-04-20 04:11 | 33.97746 | -118.15322 | 3832 ft | 209 kts | 261° |
| 2026-04-20 04:11 | 33.97566 | -118.17078 | 3784 ft | 210 kts | 261° |
| 2026-04-20 04:11 | 33.97400 | -118.18721 | 3686 ft | 189 kts | 261° |
| 2026-04-20 04:11 | 33.97243 | -118.20254 | 3398 ft | 178 kts | 261° |
| 2026-04-20 04:12 | 33.97096 | -118.21693 | 3153 ft | 167 kts | 261° |
| 2026-04-20 04:12 | 33.96958 | -118.23047 | 2929 ft | 158 kts | 261° |
| 2026-04-20 04:12 | 33.96824 | -118.24358 | 2734 ft | 159 kts | 262° |
| 2026-04-20 04:12 | 33.96692 | -118.25654 | 2519 ft | 157 kts | 262° |
| 2026-04-20 04:13 | 33.96560 | -118.26950 | 2319 ft | 155 kts | 262° |
| 2026-04-20 04:13 | 33.96429 | -118.28226 | 2119 ft | 150 kts | 262° |
| 2026-04-20 04:13 | 33.96308 | -118.29418 | 1920 ft | 137 kts | 262° |
| 2026-04-20 04:13 | 33.96193 | -118.30546 | 1741 ft | 138 kts | 263° |
| 2026-04-20 04:14 | 33.96076 | -118.31694 | 1552 ft | 137 kts | 263° |
| 2026-04-20 04:14 | 33.95962 | -118.32812 | 1372 ft | 136 kts | 262° |
| 2026-04-20 04:14 | 33.95846 | -118.33944 | 1194 ft | 135 kts | 263° |
| 2026-04-20 04:14 | 33.95733 | -118.35056 | 1011 ft | 132 kts | 263° |
| 2026-04-20 04:15 | 33.95632 | -118.36153 | 854 ft | 130 kts | 263° |
| 2026-04-20 04:15 | 33.95516 | -118.37250 | 648 ft | 131 kts | 261° |
| 2026-04-20 04:15 | 33.95405 | -118.38328 | 465 ft | 130 kts | 261° |
| 2026-04-20 04:15 | 33.95297 | -118.39388 | 282 ft | 129 kts | 261° |
| 2026-04-20 04:16 | 33.95183 | -118.40453 | 128 ft | 126 kts | 261° |
| 2026-04-20 04:16 | 33.95094 | -118.41324 | 125 ft | 76 kts | 263° |
| 2026-04-20 04:16 | 33.95034 | -118.41735 | 121 ft | 39 kts | 247° |
| 2026-04-20 04:16 | 33.94890 | -118.42004 | 121 ft | 37 kts | 232° |
| 2026-04-20 04:17 | 33.94761 | -118.42206 | 124 ft | 25 kts | 231° |
| 2026-04-20 04:17 | 33.94695 | -118.42235 | 123 ft | 5 kts | 129° |
| 2026-04-20 04:17 | 33.94691 | -118.42220 | 124 ft | 2 kts | 104° |
| 2026-04-20 04:17 | 33.94689 | -118.42188 | 124 ft | 6 kts | 89° |
| 2026-04-20 04:18 | 33.94698 | -118.42092 | 125 ft | 18 kts | 83° |
| 2026-04-20 04:18 | 33.94716 | -118.41927 | 123 ft | 18 kts | 83° |
| 2026-04-20 04:18 | 33.94691 | -118.41828 | 123 ft | 13 kts | 154° |
| 2026-04-20 04:18 | 33.94646 | -118.41753 | 125 ft | 14 kts | 83° |
| 2026-04-20 04:19 | 33.94661 | -118.41629 | 121 ft | 16 kts | 83° |
| 2026-04-20 04:19 | 33.94673 | -118.41509 | 125 ft | 15 kts | 83° |
| 2026-04-20 04:19 | 33.94685 | -118.41375 | 125 ft | 13 kts | 83° |
| 2026-04-20 04:19 | 33.94694 | -118.41285 | 124 ft | 12 kts | 82° |
| 2026-04-20 04:20 | 33.94720 | -118.41175 | 122 ft | 15 kts | 72° |
| 2026-04-20 04:20 | 33.94737 | -118.41054 | 124 ft | 12 kts | 83° |
| 2026-04-20 04:20 | 33.94748 | -118.40938 | 122 ft | 14 kts | 83° |
| 2026-04-20 04:20 | 33.94760 | -118.40815 | 120 ft | 16 kts | 83° |
| 2026-04-20 04:21 | 33.94774 | -118.40682 | 125 ft | 12 kts | 82° |
| 2026-04-20 04:21 | 33.94779 | -118.40598 | 125 ft | 8 kts | 115° |
| 2026-04-20 04:21 | 33.94724 | -118.40578 | 123 ft | 10 kts | 174° |
| 2026-04-20 04:21 | 33.94661 | -118.40568 | 121 ft | 1 kts | 172° |
| 2026-04-20 04:22 | 33.94625 | -118.40545 | 124 ft | 8 kts | 123° |
| 2026-04-20 04:22 | 33.94622 | -118.40503 | 125 ft | 4 kts | 90° |
| 2026-04-20 04:22 | 33.94622 | -118.40480 | 122 ft | 1 kts | 91° |
| 2026-04-20 04:23 | 33.94622 | -118.40478 | 123 ft | 0 kts | 92° |